Time,TemperatureF,DewpointF,PressureIn,WindDirection,WindDirectionDegrees,WindSpeedMPH,WindSpeedGustMPH,Humidity,HourlyPrecipIn,Conditions,Clouds,dailyrainin,SoftwareType,DateUTC
2013-06-11 00:03:00,71.0,70.0,30.01,SSE,158,0.0,1.0,98,0.15,,,0.15,,2013-06-11 04:03:00,
2013-06-11 00:13:00,71.0,70.0,30.01,SSE,158,0.0,1.0,98,0.15,,,0.15,,2013-06-11 04:13:00,
2013-06-11 00:23:00,71.0,70.0,30.01,SSE,157,0.0,0.0,98,0.01,,,0.14,,2013-06-11 04:23:00,
2013-06-11 00:33:00,72.0,71.0,30.01,SSE,161,0.0,1.0,98,0.00,,,0.15,,2013-06-11 04:33:00,
2013-06-11 00:42:00,72.0,71.0,30.01,SSE,161,0.0,1.0,98,0.00,,,0.15,,2013-06-11 04:42:00,
2013-06-11 00:52:00,71.0,70.0,30.01,SSE,157,0.0,0.0,98,0.00,,,0.14,,2013-06-11 04:52:00,
2013-06-11 01:02:00,71.0,70.0,30.01,SSE,157,0.0,0.0,98,0.00,,,0.14,,2013-06-11 05:02:00,
2013-06-11 01:12:00,71.0,70.0,30.01,SSE,157,0.0,0.0,98,0.00,,,0.14,,2013-06-11 05:12:00,
2013-06-11 01:22:00,71.0,70.0,30.01,SSE,157,0.0,0.0,98,0.00,,,0.14,,2013-06-11 05:22:00,
2013-06-11 01:32:00,71.0,70.0,30.01,SSE,157,0.0,0.0,98,0.00,,,0.14,,2013-06-11 05:32:00,
2013-06-11 01:42:00,71.0,70.0,30.01,SSE,157,0.0,0.0,98,0.00,,,0.14,,2013-06-11 05:42:00,
2013-06-11 01:52:00,73.0,72.0,30.00,ESE,123,0.0,2.0,98,0.00,,,0.14,,2013-06-11 05:52:00,
2013-06-11 02:02:00,73.0,72.0,30.00,South,173,0.0,0.0,98,0.00,,,0.15,,2013-06-11 06:02:00,
2013-06-11 02:12:00,73.0,72.0,30.00,South,173,0.0,0.0,98,0.00,,,0.15,,2013-06-11 06:12:00,
2013-06-11 02:22:00,73.0,72.0,30.00,South,173,0.0,0.0,98,0.00,,,0.15,,2013-06-11 06:22:00,
2013-06-11 02:32:00,73.0,72.0,30.00,ESE,123,0.0,0.0,98,0.00,,,0.14,,2013-06-11 06:32:00,
2013-06-11 02:42:00,73.0,72.0,30.00,ESE,123,0.0,0.0,98,0.00,,,0.14,,2013-06-11 06:42:00,
2013-06-11 02:52:00,73.0,72.0,30.00,ESE,123,0.0,0.0,98,0.00,,,0.14,,2013-06-11 06:52:00,
2013-06-11 03:02:00,73.0,72.0,29.99,ESE,123,0.0,0.0,98,0.00,,,0.15,,2013-06-11 07:02:00,
2013-06-11 03:13:00,73.0,72.0,29.99,ESE,123,0.0,0.0,98,0.00,,,0.15,,2013-06-11 07:13:00,
2013-06-11 03:22:00,73.0,72.0,29.98,NNE,26,0.0,1.0,98,0.00,,,0.15,,2013-06-11 07:22:00,
2013-06-11 03:32:00,74.0,73.0,29.98,NNE,25,0.0,1.0,98,0.00,,,0.14,,2013-06-11 07:32:00,
2013-06-11 03:42:00,74.0,74.0,29.96,SSW,204,0.0,1.0,99,0.00,,,0.14,,2013-06-11 07:42:00,
2013-06-11 03:52:00,74.0,74.0,29.96,SSW,204,0.0,1.0,99,0.00,,,0.14,,2013-06-11 07:52:00,
2013-06-11 04:02:00,75.0,75.0,29.97,SSW,205,0.0,0.0,99,0.00,,,0.14,,2013-06-11 08:02:00,
2013-06-11 04:12:00,75.0,75.0,29.97,SSW,205,0.0,0.0,99,0.00,,,0.14,,2013-06-11 08:12:00,
2013-06-11 04:22:00,75.0,75.0,29.98,WNW,289,0.0,1.0,99,0.00,,,0.14,,2013-06-11 08:22:00,
2013-06-11 04:32:00,73.0,72.0,29.98,NNE,26,0.0,0.0,98,0.00,,,0.15,,2013-06-11 08:32:00,
2013-06-11 04:42:00,73.0,72.0,29.98,NNE,26,0.0,0.0,98,0.00,,,0.15,,2013-06-11 08:42:00,
2013-06-11 04:52:00,75.0,74.0,29.98,WNW,288,0.0,0.0,98,0.00,,,0.14,,2013-06-11 08:52:00,
2013-06-11 05:02:00,75.0,74.0,29.98,WNW,288,0.0,0.0,98,0.00,,,0.14,,2013-06-11 09:02:00,
2013-06-11 05:12:00,75.0,74.0,29.98,WNW,288,0.0,0.0,98,0.00,,,0.14,,2013-06-11 09:12:00,
2013-06-11 05:22:00,74.0,73.0,29.98,WNW,288,0.0,0.0,98,0.00,,,0.15,,2013-06-11 09:22:00,
2013-06-11 05:33:00,75.0,74.0,29.98,WNW,288,0.0,0.0,98,0.00,,,0.14,,2013-06-11 09:33:00,
2013-06-11 05:43:00,75.0,74.0,29.98,WNW,288,0.0,0.0,98,0.00,,,0.14,,2013-06-11 09:43:00,
2013-06-11 05:53:00,74.0,73.0,29.99,WNW,289,0.0,0.0,98,0.00,,,0.15,,2013-06-11 09:53:00,
2013-06-11 06:03:00,75.0,74.0,29.98,WNW,288,0.0,0.0,98,0.00,,,0.14,,2013-06-11 10:03:00,
2013-06-11 06:12:00,75.0,74.0,29.98,WNW,288,0.0,0.0,98,0.00,,,0.14,,2013-06-11 10:12:00,
2013-06-11 06:23:00,74.0,73.0,29.99,WNW,287,0.0,0.0,98,0.00,,,0.15,,2013-06-11 10:23:00,
2013-06-11 06:33:00,75.0,74.0,29.98,WNW,288,0.0,0.0,98,0.00,,,0.14,,2013-06-11 10:33:00,
2013-06-11 06:42:00,75.0,74.0,29.98,WNW,288,0.0,0.0,98,0.00,,,0.14,,2013-06-11 10:42:00,
2013-06-11 06:52:00,73.0,72.0,30.00,WNW,288,0.0,0.0,98,0.00,,,0.14,,2013-06-11 10:52:00,
2013-06-11 07:02:00,74.0,73.0,30.00,WNW,288,0.0,0.0,98,0.00,,,0.15,,2013-06-11 11:02:00,
2013-06-11 07:12:00,74.0,73.0,30.00,WNW,288,0.0,0.0,98,0.00,,,0.15,,2013-06-11 11:12:00,
2013-06-11 07:22:00,74.0,73.0,30.00,WNW,288,0.0,0.0,98,0.00,,,0.15,,2013-06-11 11:22:00,
2013-06-11 07:32:00,73.0,72.0,30.00,WNW,284,0.0,1.0,98,0.00,,,0.14,,2013-06-11 11:32:00,
2013-06-11 07:42:00,73.0,72.0,30.00,WNW,284,0.0,1.0,98,0.00,,,0.14,,2013-06-11 11:42:00,
2013-06-11 07:52:00,74.0,73.0,30.00,WNW,288,0.0,0.0,98,0.00,,,0.15,,2013-06-11 11:52:00,
2013-06-11 08:02:00,73.0,73.0,30.00,SW,231,0.0,0.0,99,0.00,,,0.15,,2013-06-11 12:02:00,
2013-06-11 08:12:00,73.0,73.0,30.00,SW,231,0.0,0.0,99,0.00,,,0.15,,2013-06-11 12:12:00,
2013-06-11 08:22:00,74.0,74.0,30.01,SW,234,0.0,1.0,99,0.00,,,0.14,,2013-06-11 12:22:00,
2013-06-11 08:32:00,75.0,75.0,30.01,SW,221,0.0,3.0,99,0.00,,,0.14,,2013-06-11 12:32:00,
2013-06-11 08:42:00,76.0,75.0,30.01,WSW,252,0.0,2.0,97,0.00,,,0.14,,2013-06-11 12:42:00,
2013-06-11 08:52:00,76.0,75.0,30.01,WSW,252,0.0,2.0,97,0.00,,,0.14,,2013-06-11 12:52:00,
2013-06-11 09:02:00,76.0,75.0,30.01,WSW,243,0.0,3.0,96,0.00,,,0.14,,2013-06-11 13:02:00,
2013-06-11 09:12:00,76.0,75.0,30.01,WSW,243,0.0,3.0,96,0.00,,,0.14,,2013-06-11 13:12:00,
2013-06-11 09:22:00,77.0,75.0,30.01,SW,227,1.0,3.0,94,0.00,,,0.14,,2013-06-11 13:22:00,
2013-06-11 09:32:00,73.0,72.0,30.01,SW,231,0.0,0.0,98,0.00,,,0.15,,2013-06-11 13:32:00,
2013-06-11 09:42:00,73.0,72.0,30.01,SW,231,0.0,0.0,98,0.00,,,0.15,,2013-06-11 13:42:00,
2013-06-11 09:52:00,77.0,74.0,30.01,SSW,193,0.0,3.0,92,0.00,,,0.15,,2013-06-11 13:52:00,
2013-06-11 10:02:00,77.0,74.0,30.01,SSW,193,0.0,3.0,92,0.00,,,0.15,,2013-06-11 14:02:00,
2013-06-11 10:12:00,77.0,74.0,30.01,SSW,193,0.0,3.0,92,0.00,,,0.15,,2013-06-11 14:12:00,
2013-06-11 10:22:00,78.0,74.0,30.01,West,275,1.0,2.0,89,0.00,,,0.15,,2013-06-11 14:22:00,
2013-06-11 10:32:00,78.0,75.0,30.01,South,181,0.0,0.0,90,0.00,,,0.15,,2013-06-11 14:32:00,
2013-06-11 10:42:00,78.0,75.0,30.01,South,181,0.0,0.0,90,0.00,,,0.15,,2013-06-11 14:42:00,
2013-06-11 10:53:00,80.0,76.0,30.02,WSW,243,1.0,3.0,87,0.00,,,0.15,,2013-06-11 14:53:00,
2013-06-11 11:02:00,78.0,75.0,30.01,South,181,0.0,0.0,90,0.00,,,0.15,,2013-06-11 15:02:00,
2013-06-11 11:12:00,78.0,75.0,30.01,South,181,0.0,0.0,90,0.00,,,0.15,,2013-06-11 15:12:00,
2013-06-11 11:22:00,78.0,75.0,30.01,South,181,0.0,0.0,90,0.00,,,0.15,,2013-06-11 15:22:00,
2013-06-11 11:33:00,78.0,75.0,30.01,South,181,0.0,0.0,90,0.00,,,0.15,,2013-06-11 15:33:00,
2013-06-11 11:43:00,78.0,75.0,30.01,South,181,0.0,0.0,90,0.00,,,0.15,,2013-06-11 15:43:00,
2013-06-11 11:53:00,82.0,76.0,30.02,SSW,204,0.0,3.0,83,0.00,,,0.15,,2013-06-11 15:53:00,
2013-06-11 12:03:00,83.0,77.0,30.02,SW,226,1.0,3.0,82,0.00,,,0.15,,2013-06-11 16:03:00,
2013-06-11 12:12:00,83.0,77.0,30.02,SW,226,1.0,3.0,82,0.00,,,0.15,,2013-06-11 16:12:00,
2013-06-11 12:22:00,84.0,77.0,30.01,NW,319,1.0,3.0,79,0.00,,,0.15,,2013-06-11 16:22:00,
2013-06-11 12:33:00,85.0,77.0,30.01,SSW,212,1.0,3.0,78,0.00,,,0.15,,2013-06-11 16:33:00,
2013-06-11 12:42:00,85.0,77.0,30.01,SSW,212,1.0,3.0,78,0.00,,,0.15,,2013-06-11 16:42:00,
2013-06-11 12:53:00,85.0,77.0,30.00,SW,228,1.0,3.0,78,0.00,,,0.15,,2013-06-11 16:53:00,
2013-06-11 13:02:00,86.0,77.0,30.00,South,170,1.0,3.0,75,0.00,,,0.15,,2013-06-11 17:02:00,
2013-06-11 13:12:00,86.0,77.0,30.00,South,170,1.0,3.0,75,0.00,,,0.15,,2013-06-11 17:12:00,
2013-06-11 13:22:00,87.0,78.0,29.99,WSW,239,1.0,3.0,75,0.00,,,0.15,,2013-06-11 17:22:00,
2013-06-11 13:32:00,87.0,78.0,29.99,SW,224,0.0,3.0,76,0.00,,,0.15,,2013-06-11 17:32:00,
2013-06-11 13:43:00,87.0,78.0,29.99,SW,224,0.0,3.0,76,0.00,,,0.15,,2013-06-11 17:43:00,
2013-06-11 13:53:00,88.0,77.0,29.99,SW,219,1.0,3.0,71,0.00,,,0.15,,2013-06-11 17:53:00,
2013-06-11 14:02:00,87.0,78.0,29.98,West,261,1.0,2.0,74,0.00,,,0.15,,2013-06-11 18:02:00,
2013-06-11 14:12:00,87.0,78.0,29.98,West,261,1.0,2.0,74,0.00,,,0.15,,2013-06-11 18:12:00,
2013-06-11 14:22:00,89.0,79.0,29.98,SW,216,0.0,2.0,72,0.00,,,0.15,,2013-06-11 18:22:00,
2013-06-11 14:33:00,89.0,79.0,29.97,NW,308,1.0,3.0,72,0.00,,,0.15,,2013-06-11 18:33:00,
2013-06-11 14:43:00,89.0,79.0,29.97,NW,308,1.0,3.0,72,0.00,,,0.15,,2013-06-11 18:43:00,
2013-06-11 14:52:00,90.0,78.0,29.97,SW,228,1.0,3.0,69,0.00,,,0.15,,2013-06-11 18:52:00,
2013-06-11 15:02:00,90.0,78.0,29.96,West,266,2.0,3.0,67,0.00,,,0.15,,2013-06-11 19:02:00,
2013-06-11 15:12:00,90.0,78.0,29.96,West,266,2.0,3.0,67,0.00,,,0.15,,2013-06-11 19:12:00,
2013-06-11 15:22:00,90.0,78.0,29.95,SW,225,1.0,6.0,67,0.00,,,0.15,,2013-06-11 19:22:00,
2013-06-11 15:33:00,90.0,79.0,29.94,NW,312,0.0,2.0,70,0.00,,,0.15,,2013-06-11 19:33:00,
2013-06-11 15:42:00,90.0,79.0,29.94,NW,312,0.0,2.0,70,0.00,,,0.15,,2013-06-11 19:42:00,
2013-06-11 15:53:00,91.0,78.0,29.94,SSW,201,1.0,3.0,65,0.00,,,0.15,,2013-06-11 19:53:00,
2013-06-11 16:03:00,90.0,77.0,29.94,SW,233,1.0,6.0,65,0.00,,,0.15,,2013-06-11 20:03:00,
2013-06-11 16:12:00,90.0,77.0,29.94,SW,233,1.0,6.0,65,0.00,,,0.15,,2013-06-11 20:12:00,
2013-06-11 16:22:00,89.0,78.0,29.93,South,174,3.0,12.0,70,0.00,,,0.15,,2013-06-11 20:22:00,
2013-06-11 16:32:00,89.0,78.0,29.93,SSE,163,2.0,8.0,70,0.00,,,0.15,,2013-06-11 20:32:00,
2013-06-11 16:42:00,89.0,78.0,29.93,SSE,163,2.0,8.0,70,0.00,,,0.15,,2013-06-11 20:42:00,
2013-06-11 16:52:00,88.0,78.0,29.93,SSW,195,1.0,7.0,73,0.00,,,0.15,,2013-06-11 20:52:00,
2013-06-11 17:02:00,87.0,77.0,29.93,SSW,192,1.0,7.0,73,0.00,,,0.15,,2013-06-11 21:02:00,
2013-06-11 17:12:00,87.0,77.0,29.93,SSW,192,1.0,7.0,73,0.00,,,0.15,,2013-06-11 21:12:00,
2013-06-11 17:22:00,86.0,77.0,29.93,SSW,209,1.0,3.0,74,0.00,,,0.15,,2013-06-11 21:22:00,
2013-06-11 17:33:00,85.0,77.0,29.93,South,181,1.0,6.0,76,0.00,,,0.15,,2013-06-11 21:33:00,
2013-06-11 17:42:00,85.0,77.0,29.93,South,181,1.0,6.0,76,0.00,,,0.15,,2013-06-11 21:42:00,
2013-06-11 17:53:00,85.0,77.0,29.92,South,183,1.0,10.0,78,0.00,,,0.15,,2013-06-11 21:53:00,
2013-06-11 18:03:00,85.0,78.0,29.92,SSE,156,1.0,3.0,79,0.00,,,0.15,,2013-06-11 22:03:00,
2013-06-11 18:12:00,85.0,78.0,29.92,SSE,156,1.0,3.0,79,0.00,,,0.15,,2013-06-11 22:12:00,
2013-06-11 18:22:00,84.0,78.0,29.92,WSW,252,0.0,2.0,82,0.00,,,0.15,,2013-06-11 22:22:00,
2013-06-11 18:33:00,83.0,77.0,29.92,North,5,0.0,3.0,81,0.00,,,0.15,,2013-06-11 22:33:00,
2013-06-11 18:42:00,83.0,77.0,29.92,North,5,0.0,3.0,81,0.00,,,0.15,,2013-06-11 22:42:00,
2013-06-11 18:52:00,83.0,77.0,29.91,SSE,160,0.0,7.0,83,0.00,,,0.15,,2013-06-11 22:52:00,
2013-06-11 19:02:00,82.0,77.0,29.91,SSE,160,1.0,8.0,85,0.00,,,0.15,,2013-06-11 23:02:00,
2013-06-11 19:12:00,82.0,77.0,29.91,SSE,160,1.0,8.0,85,0.00,,,0.15,,2013-06-11 23:12:00,
2013-06-11 19:22:00,81.0,78.0,29.91,South,181,1.0,6.0,90,0.02,,,0.17,,2013-06-11 23:22:00,
2013-06-11 19:32:00,81.0,78.0,29.91,South,181,1.0,6.0,90,0.02,,,0.17,,2013-06-11 23:32:00,
2013-06-11 19:42:00,81.0,78.0,29.91,South,181,1.0,6.0,90,0.02,,,0.17,,2013-06-11 23:42:00,
2013-06-11 19:52:00,76.0,74.0,29.94,ESE,107,1.0,5.0,93,0.20,,,0.35,,2013-06-11 23:52:00,
2013-06-11 20:02:00,76.0,74.0,29.93,NE,42,0.0,9.0,95,0.20,,,0.35,,2013-06-12 00:02:00,
2013-06-11 20:12:00,76.0,74.0,29.93,NE,42,0.0,9.0,95,0.20,,,0.35,,2013-06-12 00:12:00,
2013-06-11 20:22:00,75.0,74.0,29.94,South,170,2.0,5.0,96,0.21,,,0.38,,2013-06-12 00:22:00,
2013-06-11 20:32:00,75.0,73.0,29.93,SSE,156,2.0,3.0,95,0.12,,,0.38,,2013-06-12 00:32:00,
2013-06-11 20:42:00,75.0,73.0,29.93,SSE,156,2.0,3.0,95,0.12,,,0.38,,2013-06-12 00:42:00,
2013-06-11 20:52:00,75.0,74.0,29.94,SE,131,0.0,3.0,97,0.03,,,0.38,,2013-06-12 00:52:00,
2013-06-11 21:02:00,75.0,74.0,29.93,SE,130,3.0,9.0,97,0.09,,,0.44,,2013-06-12 01:02:00,
2013-06-11 21:12:00,75.0,74.0,29.93,SE,130,3.0,9.0,97,0.09,,,0.44,,2013-06-12 01:12:00,
2013-06-11 21:22:00,76.0,75.0,29.93,South,171,1.0,5.0,97,0.08,,,0.46,,2013-06-12 01:22:00,
2013-06-11 21:32:00,76.0,75.0,29.95,ESE,119,0.0,8.0,98,0.09,,,0.47,,2013-06-12 01:32:00,
2013-06-11 21:42:00,76.0,75.0,29.95,ESE,119,0.0,8.0,98,0.09,,,0.47,,2013-06-12 01:42:00,
2013-06-11 21:52:00,77.0,76.0,29.95,SSE,166,1.0,3.0,98,0.09,,,0.47,,2013-06-12 01:52:00,
2013-06-11 22:02:00,77.0,76.0,29.96,West,262,0.0,2.0,98,0.07,,,0.51,,2013-06-12 02:02:00,
2013-06-11 22:12:00,77.0,76.0,29.96,West,262,0.0,2.0,98,0.07,,,0.51,,2013-06-12 02:12:00,
2013-06-11 22:22:00,78.0,77.0,29.96,North,4,0.0,3.0,98,0.13,,,0.59,,2013-06-12 02:22:00,
2013-06-11 22:32:00,76.0,74.0,29.97,NE,55,2.0,5.0,95,0.18,,,0.65,,2013-06-12 02:32:00,
2013-06-11 22:42:00,74.0,73.0,29.96,SSE,156,1.0,3.0,96,0.18,,,0.65,,2013-06-12 02:42:00,
2013-06-11 22:52:00,74.0,73.0,29.96,SSE,156,1.0,3.0,96,0.18,,,0.65,,2013-06-12 02:52:00,
2013-06-11 23:02:00,73.0,72.0,29.96,ESE,122,1.0,5.0,96,0.14,,,0.65,,2013-06-12 03:02:00,
2013-06-11 23:12:00,73.0,72.0,29.96,ESE,122,1.0,5.0,96,0.14,,,0.65,,2013-06-12 03:12:00,
2013-06-11 23:22:00,73.0,72.0,29.96,SE,138,0.0,1.0,97,0.06,,,0.65,,2013-06-12 03:22:00,
2013-06-11 23:33:00,74.0,73.0,29.96,East,95,0.0,1.0,98,0.00,,,0.65,,2013-06-12 03:33:00,
2013-06-11 23:43:00,74.0,73.0,29.96,East,95,0.0,1.0,98,0.00,,,0.65,,2013-06-12 03:43:00,
2013-06-11 23:53:00,74.0,73.0,29.96,South,182,3.0,6.0,98,0.00,,,0.65,,2013-06-12 03:53:00,